Time;durP1;ratioP1;P1;durP2;ratioP2;P2;SDS_P1;SDS_P2;PMS_P1;PMS_P2;Temp;Humidity;BMP_temperature;BMP_pressure;BME280_temperature;BME280_humidity;BME280_pressure;Samples;Min_cycle;Max_cycle;Signal;HPM_P1;HPM_P2
2021/10/11 00:01:21;;;;;;;10.93;9.80;;;13.00;99.90;;;;;;5033626;28;20013;-73
2021/10/11 00:03:48;;;;;;;11.68;10.50;;;13.00;99.90;;;;;;5033591;28;20017;-73
2021/10/11 00:06:16;;;;;;;11.35;9.68;;;13.20;99.90;;;;;;5033321;28;20045;-72
2021/10/11 00:08:43;;;;;;;11.80;9.52;;;12.90;99.90;;;;;;5033648;28;20020;-73
2021/10/11 00:11:10;;;;;;;10.20;9.30;;;12.80;99.90;;;;;;5033540;28;20021;-73
2021/10/11 00:13:38;;;;;;;14.40;9.35;;;12.70;99.90;;;;;;5033460;28;20029;-73
2021/10/11 00:16:05;;;;;;;10.88;9.88;;;13.00;99.90;;;;;;5033591;28;20017;-73
2021/10/11 00:18:33;;;;;;;11.20;9.40;;;12.60;99.90;;;;;;5033255;28;20026;-75
2021/10/11 00:21:00;;;;;;;10.70;9.65;;;12.70;99.90;;;;;;5033240;28;20489;-74
2021/10/11 00:23:27;;;;;;;11.85;9.07;;;12.70;99.90;;;;;;5033148;28;20013;-74
2021/10/11 00:25:55;;;;;;;10.13;9.13;;;12.70;99.90;;;;;;5033191;28;20025;-74
2021/10/11 00:28:22;;;;;;;10.45;9.27;;;12.90;99.90;;;;;;5033175;28;20406;-72
2021/10/11 00:30:49;;;;;;;10.02;8.90;;;13.00;99.90;;;;;;5015411;28;20029;-73
2021/10/11 00:33:17;;;;;;;9.90;8.90;;;13.10;99.90;;;;;;5033067;28;20033;-74
2021/10/11 00:35:44;;;;;;;11.35;9.10;;;13.30;99.90;;;;;;5014989;28;20422;-74
2021/10/11 00:38:11;;;;;;;12.52;9.02;;;13.30;99.90;;;;;;5033027;28;20044;-74
2021/10/11 00:40:39;;;;;;;10.35;9.00;;;13.30;99.90;;;;;;5032952;28;20096;-74
2021/10/11 00:43:06;;;;;;;10.35;9.40;;;13.30;99.90;;;;;;5032900;28;20020;-74
2021/10/11 00:45:33;;;;;;;11.07;8.50;;;13.40;99.90;;;;;;5032861;28;20069;-73
2021/10/11 00:48:01;;;;;;;10.00;9.05;;;13.60;99.90;;;;;;5032813;28;20497;-73
2021/10/11 00:50:28;;;;;;;12.98;9.93;;;13.60;99.90;;;;;;5032913;28;20032;-73
2021/10/11 00:52:56;;;;;;;10.60;9.40;;;13.40;99.90;;;;;;5032792;28;20045;-73
2021/10/11 00:55:24;;;;;;;10.43;9.43;;;13.40;99.90;;;;;;5032667;28;20033;-73
2021/10/11 00:57:52;;;;;;;11.80;10.02;;;13.30;99.90;;;;;;5032849;28;20028;-73
2021/10/11 01:00:19;;;;;;;10.60;9.70;;;13.50;99.90;;;;;;5015182;28;20132;-73
2021/10/11 01:02:47;;;;;;;10.88;9.77;;;13.40;99.90;;;;;;5032698;28;20486;-73
2021/10/11 01:05:14;;;;;;;15.38;10.00;;;13.70;99.90;;;;;;5032594;28;20042;-73
2021/10/11 01:07:42;;;;;;;10.85;9.50;;;13.70;99.90;;;;;;5015193;28;20030;-73
2021/10/11 01:10:09;;;;;;;12.25;9.90;;;13.60;99.90;;;;;;5036505;28;20048;-74
2021/10/11 01:12:37;;;;;;;10.98;9.73;;;13.50;99.90;;;;;;5036790;28;20025;-74
2021/10/11 01:15:05;;;;;;;11.07;9.93;;;13.80;99.90;;;;;;5018890;28;20052;-74
2021/10/11 01:17:33;;;;;;;11.95;10.55;;;14.10;99.90;;;;;;5018934;28;20025;-74
2021/10/11 01:20:01;;;;;;;14.45;9.95;;;14.00;99.90;;;;;;5036711;28;20050;-74
2021/10/11 01:22:37;;;;;;;13.18;10.05;;;14.00;99.90;;;;;;5036487;28;20040;-74
2021/10/11 01:25:07;;;;;;;9.65;8.73;;;14.00;99.90;;;;;;5036539;28;20021;-74
2021/10/11 01:27:35;;;;;;;11.32;8.52;;;14.20;99.90;;;;;;5036807;28;20021;-75
2021/10/11 01:30:06;;;;;;;8.95;7.95;;;14.20;99.90;;;;;;5036491;28;20026;-74
2021/10/11 01:32:33;;;;;;;12.02;9.68;;;14.20;99.90;;;;;;5035088;28;20034;-74
2021/10/11 01:35:01;;;;;;;15.32;9.27;;;14.00;99.90;;;;;;5035977;28;20025;-74
2021/10/11 01:37:28;;;;;;;10.55;9.40;;;14.10;99.90;;;;;;5034861;28;20482;-74
2021/10/11 01:39:55;;;;;;;10.20;9.32;;;14.10;99.90;;;;;;5036332;28;20033;-74
2021/10/11 01:42:23;;;;;;;9.70;8.70;;;14.30;99.90;;;;;;5036449;28;20033;-74
2021/10/11 01:44:50;;;;;;;10.23;9.15;;;14.30;99.90;;;;;;5036172;28;20495;-74
2021/10/11 01:47:18;;;;;;;10.60;9.48;;;14.10;99.90;;;;;;5036031;28;20027;-73
2021/10/11 01:49:45;;;;;;;10.48;9.35;;;14.00;99.90;;;;;;5034472;28;20516;-74
2021/10/11 01:52:12;;;;;;;11.25;10.02;;;14.00;99.90;;;;;;5035965;28;20021;-73
2021/10/11 01:54:39;;;;;;;10.98;9.35;;;14.20;99.90;;;;;;5035953;28;20025;-74
2021/10/11 01:57:07;;;;;;;11.18;9.95;;;14.30;99.90;;;;;;5035518;28;20025;-74
2021/10/11 01:59:34;;;;;;;11.00;9.82;;;14.30;99.90;;;;;;5035556;28;20488;-74
2021/10/11 02:02:03;;;;;;;12.27;9.40;;;14.40;99.90;;;;;;5035656;28;20026;-75
2021/10/11 02:04:31;;;;;;;12.60;9.40;;;14.60;99.90;;;;;;5035419;28;20120;-73
2021/10/11 02:06:58;;;;;;;12.98;9.88;;;14.50;99.90;;;;;;5035784;28;20095;-73
2021/10/11 02:09:26;;;;;;;16.05;10.80;;;14.30;99.90;;;;;;5035729;28;20079;-74
2021/10/11 02:11:53;;;;;;;11.60;9.85;;;14.20;99.90;;;;;;5035946;28;20450;-74
2021/10/11 02:14:20;;;;;;;15.13;10.70;;;14.40;99.90;;;;;;5035429;28;20065;-74
2021/10/11 02:16:48;;;;;;;15.43;10.05;;;14.20;99.90;;;;;;5035517;28;20013;-73
2021/10/11 02:19:15;;;;;;;10.88;9.38;;;14.30;99.90;;;;;;5035280;28;20014;-74
2021/10/11 02:21:43;;;;;;;10.93;9.40;;;14.40;99.90;;;;;;5017583;28;20029;-74
2021/10/11 02:24:10;;;;;;;9.75;8.75;;;14.40;99.90;;;;;;5035336;28;20030;-74
2021/10/11 02:26:37;;;;;;;14.15;9.80;;;14.30;99.90;;;;;;5017524;28;20077;-74
2021/10/11 02:29:04;;;;;;;11.40;8.88;;;14.30;99.90;;;;;;5035493;28;20104;-74
2021/10/11 02:31:32;;;;;;;9.85;8.93;;;14.50;99.90;;;;;;5035467;28;20187;-74
2021/10/11 02:33:59;;;;;;;10.30;8.80;;;14.80;99.90;;;;;;5017301;28;20040;-74
2021/10/11 02:36:26;;;;;;;12.05;8.60;;;14.90;99.90;;;;;;5035212;28;20367;-74
2021/10/11 02:38:54;;;;;;;13.48;8.70;;;14.90;99.90;;;;;;5035436;28;20426;-74
2021/10/11 02:41:21;;;;;;;9.48;8.05;;;15.00;99.90;;;;;;5035139;28;20013;-75
2021/10/11 02:43:49;;;;;;;13.63;9.55;;;15.20;99.90;;;;;;5035043;28;20026;-73
2021/10/11 02:46:17;;;;;;;11.60;9.00;;;14.90;99.90;;;;;;5035119;28;20028;-74
2021/10/11 02:48:44;;;;;;;10.27;8.93;;;14.80;99.90;;;;;;5034998;28;20032;-75
2021/10/11 02:51:11;;;;;;;13.15;9.18;;;14.60;99.90;;;;;;5034995;28;20478;-74
2021/10/11 02:53:38;;;;;;;13.68;9.75;;;14.50;99.90;;;;;;5034943;28;20025;-74
2021/10/11 02:56:06;;;;;;;12.45;8.38;;;14.70;99.90;;;;;;5034778;28;20104;-74
2021/10/11 02:58:33;;;;;;;11.68;9.15;;;14.60;99.90;;;;;;5034751;28;20032;-74
2021/10/11 03:01:00;;;;;;;9.98;8.75;;;14.60;99.90;;;;;;5034733;28;20155;-74
2021/10/11 03:03:28;;;;;;;9.50;8.50;;;14.60;99.90;;;;;;5034701;28;20018;-74
2021/10/11 03:05:55;;;;;;;9.25;8.25;;;14.50;99.90;;;;;;5034388;28;20050;-74
2021/10/11 03:08:22;;;;;;;10.68;9.25;;;14.40;99.90;;;;;;5034547;28;20034;-74
2021/10/11 03:10:49;;;;;;;10.20;8.40;;;14.40;99.90;;;;;;5034587;28;20560;-74
2021/10/11 03:13:17;;;;;;;9.77;8.60;;;14.30;99.90;;;;;;5016691;28;20037;-74
2021/10/11 03:15:44;;;;;;;9.88;8.90;;;14.10;99.90;;;;;;5016631;28;20037;-74
2021/10/11 03:18:12;;;;;;;10.40;9.45;;;14.10;99.90;;;;;;5034471;28;20018;-74
2021/10/11 03:20:39;;;;;;;13.30;9.70;;;13.90;99.90;;;;;;5034473;28;20099;-74
2021/10/11 03:23:06;;;;;;;10.70;9.60;;;13.90;99.90;;;;;;5034321;28;20021;-74
2021/10/11 03:25:33;;;;;;;10.45;9.45;;;13.90;99.90;;;;;;5016423;28;20025;-74
2021/10/11 03:28:01;;;;;;;12.52;9.25;;;13.90;99.90;;;;;;5034247;28;20032;-74
2021/10/11 03:30:28;;;;;;;10.48;9.30;;;13.90;99.90;;;;;;5033991;28;20024;-74
2021/10/11 03:32:56;;;;;;;11.43;10.15;;;14.00;99.90;;;;;;5033685;28;20017;-74
2021/10/11 03:35:24;;;;;;;15.65;10.85;;;14.00;99.90;;;;;;5016274;28;20509;-74
2021/10/11 03:37:51;;;;;;;10.23;9.13;;;14.10;99.90;;;;;;5016409;28;20052;-74
2021/10/11 03:40:18;;;;;;;9.75;8.73;;;14.10;99.90;;;;;;5034023;28;20024;-74
2021/10/11 03:42:46;;;;;;;10.98;9.02;;;14.10;99.90;;;;;;5033975;28;20045;-74
2021/10/11 03:45:13;;;;;;;11.10;9.32;;;14.10;99.90;;;;;;5033944;28;20018;-75
2021/10/11 03:47:40;;;;;;;13.63;9.73;;;14.10;99.90;;;;;;5034168;28;20053;-75
2021/10/11 03:50:09;;;;;;;11.27;10.20;;;14.10;99.90;;;;;;5033826;28;20029;-74
2021/10/11 03:52:36;;;;;;;11.45;9.73;;;14.10;99.90;;;;;;5033731;28;20021;-74
2021/10/11 03:55:04;;;;;;;11.43;10.27;;;14.00;99.90;;;;;;5033633;28;20036;-75
2021/10/11 03:57:31;;;;;;;11.20;10.20;;;14.00;99.90;;;;;;5033727;28;20022;-75
2021/10/11 03:59:59;;;;;;;13.25;10.43;;;14.00;99.90;;;;;;5033624;28;20021;-74
2021/10/11 04:02:27;;;;;;;11.75;10.60;;;14.00;99.90;;;;;;5033534;28;20025;-75
2021/10/11 04:04:54;;;;;;;10.65;9.60;;;14.10;99.90;;;;;;5012297;28;20131;-75
2021/10/11 04:07:21;;;;;;;11.27;9.35;;;14.10;99.90;;;;;;5012522;28;20026;-75
2021/10/11 04:09:49;;;;;;;10.40;9.50;;;14.20;99.90;;;;;;5013654;28;20072;-75
2021/10/11 04:12:20;;;;;;;10.98;9.85;;;14.30;99.90;;;;;;5013714;28;20080;-75
2021/10/11 04:14:52;;;;;;;11.52;9.65;;;14.30;99.90;;;;;;5013619;28;20435;-75
2021/10/11 04:17:20;;;;;;;14.10;9.95;;;14.40;99.90;;;;;;5013637;28;20022;-75
2021/10/11 04:19:47;;;;;;;11.40;10.25;;;14.30;99.90;;;;;;5012222;28;20041;-75
2021/10/11 04:22:14;;;;;;;14.50;10.13;;;14.50;99.90;;;;;;5013437;28;20018;-74
2021/10/11 04:24:42;;;;;;;14.95;11.20;;;14.70;99.90;;;;;;5013451;28;20021;-75
2021/10/11 04:27:09;;;;;;;11.85;10.70;;;14.60;99.90;;;;;;5012087;28;20026;-75
2021/10/11 04:29:38;;;;;;;16.70;11.40;;;14.50;99.90;;;;;;5013362;28;20399;-76
2021/10/11 04:32:06;;;;;;;12.35;10.25;;;14.50;99.90;;;;;;5013313;28;20387;-74
2021/10/11 04:34:33;;;;;;;11.27;10.38;;;14.20;99.90;;;;;;5013240;28;20033;-75
2021/10/11 04:37:00;;;;;;;11.88;10.70;;;14.20;99.90;;;;;;5012255;28;20455;-74
2021/10/11 04:39:28;;;;;;;13.80;10.70;;;14.40;99.90;;;;;;5013191;28;20057;-75
2021/10/11 04:41:55;;;;;;;13.18;10.60;;;14.50;99.90;;;;;;5013148;28;20034;-75
2021/10/11 04:44:22;;;;;;;11.65;10.45;;;14.70;99.90;;;;;;5011779;28;20030;-74
2021/10/11 04:46:49;;;;;;;12.40;11.10;;;14.70;99.90;;;;;;5013080;28;20018;-74
2021/10/11 04:49:17;;;;;;;17.67;10.88;;;14.80;99.90;;;;;;5013123;28;20034;-74
2021/10/11 04:51:44;;;;;;;11.55;9.88;;;14.80;99.90;;;;;;5013026;28;20025;-75
2021/10/11 04:54:14;;;;;;;15.45;10.63;;;15.00;99.90;;;;;;5012875;28;20030;-75
2021/10/11 04:56:42;;;;;;;13.75;9.82;;;15.10;99.90;;;;;;5013008;28;20074;-74
2021/10/11 04:59:09;;;;;;;12.15;10.43;;;14.90;99.90;;;;;;5012818;28;20022;-74
2021/10/11 05:01:36;;;;;;;13.25;9.95;;;14.70;99.90;;;;;;5011661;28;20113;-74
2021/10/11 05:04:04;;;;;;;10.82;9.93;;;14.50;99.90;;;;;;5012832;28;20029;-74
2021/10/11 05:06:31;;;;;;;11.18;10.07;;;14.30;99.90;;;;;;5032474;28;20053;-74
2021/10/11 05:09:00;;;;;;;13.18;10.55;;;14.40;99.90;;;;;;5014904;28;20445;-74
2021/10/11 05:11:30;;;;;;;11.38;10.27;;;14.30;99.90;;;;;;5032712;28;20430;-74
2021/10/11 05:13:58;;;;;;;11.23;10.18;;;14.30;99.90;;;;;;5032578;28;20101;-74
2021/10/11 05:16:27;;;;;;;12.82;9.23;;;14.30;99.90;;;;;;5032555;28;20021;-75
2021/10/11 05:18:54;;;;;;;13.05;9.40;;;14.50;99.90;;;;;;5032540;28;20021;-75
2021/10/11 05:21:22;;;;;;;10.70;9.70;;;14.50;99.90;;;;;;5014846;28;20057;-75
2021/10/11 05:23:49;;;;;;;12.45;10.95;;;14.60;99.90;;;;;;5032463;28;20100;-75
2021/10/11 05:26:16;;;;;;;11.27;9.70;;;14.60;99.90;;;;;;5014749;28;20128;-75
2021/10/11 05:28:44;;;;;;;10.20;9.23;;;14.60;99.90;;;;;;5031336;28;20048;-74
2021/10/11 05:31:12;;;;;;;10.20;9.20;;;14.70;99.90;;;;;;5032475;28;20122;-74
2021/10/11 05:33:40;;;;;;;9.50;8.65;;;14.70;99.90;;;;;;5032531;28;20033;-74
2021/10/11 05:36:08;;;;;;;9.50;8.63;;;14.80;99.90;;;;;;5014648;28;20025;-74
2021/10/11 05:38:35;;;;;;;8.90;8.30;;;15.10;99.90;;;;;;5032403;28;20029;-75
2021/10/11 05:41:03;;;;;;;9.57;8.68;;;14.90;99.90;;;;;;5032336;28;20044;-74
2021/10/11 05:43:30;;;;;;;9.25;8.40;;;15.00;99.90;;;;;;5032305;28;20389;-75
2021/10/11 05:45:57;;;;;;;12.57;8.77;;;14.90;99.90;;;;;;5030839;28;20029;-75
2021/10/11 05:48:25;;;;;;;9.48;8.63;;;14.70;99.90;;;;;;5014650;28;20415;-75
2021/10/11 05:50:52;;;;;;;9.35;8.55;;;14.60;99.90;;;;;;5032354;28;20025;-74
2021/10/11 05:53:19;;;;;;;9.82;8.38;;;14.40;99.90;;;;;;5032239;28;20030;-74
2021/10/11 05:55:47;;;;;;;8.85;8.27;;;14.20;99.90;;;;;;5017121;28;20516;-74
2021/10/11 05:58:14;;;;;;;9.73;8.77;;;14.20;99.90;;;;;;5035928;28;20022;-75
2021/10/11 06:00:41;;;;;;;8.95;8.30;;;14.30;99.90;;;;;;5018046;28;20526;-74
2021/10/11 06:03:09;;;;;;;9.60;8.57;;;14.20;99.90;;;;;;5035911;28;20025;-74
2021/10/11 06:05:37;;;;;;;9.00;8.23;;;14.30;99.90;;;;;;5035402;28;20087;-74
2021/10/11 06:08:04;;;;;;;8.70;7.90;;;14.30;99.90;;;;;;5035667;28;20052;-74
2021/10/11 06:10:34;;;;;;;8.77;8.13;;;14.40;99.90;;;;;;5035642;28;20122;-75
2021/10/11 06:13:02;;;;;;;9.52;8.82;;;14.50;99.90;;;;;;5035641;28;20052;-75
2021/10/11 06:15:29;;;;;;;8.88;8.10;;;14.30;99.90;;;;;;5035456;28;20045;-74
2021/10/11 06:17:56;;;;;;;9.10;8.30;;;14.30;99.90;;;;;;5035534;28;20022;-74
2021/10/11 06:20:24;;;;;;;9.10;8.40;;;14.10;99.90;;;;;;5017708;28;20021;-74
2021/10/11 06:22:51;;;;;;;9.60;8.90;;;14.00;99.90;;;;;;5017686;28;20025;-74
2021/10/11 06:25:18;;;;;;;9.50;8.68;;;13.60;99.90;;;;;;5017473;28;20078;-74
2021/10/11 06:27:46;;;;;;;11.27;9.57;;;13.50;99.90;;;;;;5035283;28;20033;-74
2021/10/11 06:30:13;;;;;;;10.25;9.13;;;13.50;99.90;;;;;;5017467;28;20033;-74
2021/10/11 06:32:41;;;;;;;10.32;8.93;;;13.50;99.90;;;;;;5035420;28;20021;-74
2021/10/11 06:35:08;;;;;;;12.30;8.70;;;13.40;99.90;;;;;;5035129;28;20033;-75
2021/10/11 06:37:36;;;;;;;9.50;8.60;;;13.30;99.90;;;;;;5033783;28;20390;-74
2021/10/11 06:40:04;;;;;;;9.93;9.00;;;13.30;99.90;;;;;;5035125;28;20056;-74
2021/10/11 06:42:31;;;;;;;9.80;8.80;;;13.20;99.90;;;;;;5035159;28;20331;-75
2021/10/11 06:44:58;;;;;;;10.70;8.82;;;13.20;99.90;;;;;;5034978;28;20084;-74
2021/10/11 06:47:26;;;;;;;10.57;9.57;;;13.20;99.90;;;;;;5035010;28;20025;-75
2021/10/11 06:49:53;;;;;;;9.05;8.45;;;13.30;99.90;;;;;;5034836;28;20026;-75
2021/10/11 06:52:20;;;;;;;11.93;9.10;;;13.40;99.90;;;;;;5034996;28;20029;-75
2021/10/11 06:54:48;;;;;;;10.85;9.50;;;13.50;99.90;;;;;;5034630;28;20028;-74
2021/10/11 06:57:15;;;;;;;10.70;9.68;;;13.50;99.90;;;;;;5034805;28;20021;-74
2021/10/11 06:59:42;;;;;;;11.55;10.35;;;13.40;99.90;;;;;;5034613;28;20100;-74
2021/10/11 07:02:10;;;;;;;10.63;9.73;;;13.50;99.90;;;;;;5034774;28;20022;-74
2021/10/11 07:04:37;;;;;;;10.55;9.48;;;13.50;99.90;;;;;;5034339;28;20380;-74
2021/10/11 07:07:06;;;;;;;9.75;8.95;;;13.50;99.90;;;;;;5033499;28;20021;-74
2021/10/11 07:09:33;;;;;;;10.10;9.10;;;13.60;99.90;;;;;;5016649;28;20029;-73
2021/10/11 07:12:00;;;;;;;10.07;9.00;;;13.60;99.90;;;;;;5034437;28;20063;-74
2021/10/11 07:14:28;;;;;;;10.73;9.20;;;13.60;99.90;;;;;;5016529;28;20389;-73
2021/10/11 07:16:56;;;;;;;12.68;9.30;;;13.60;99.90;;;;;;5034357;28;20052;-73
2021/10/11 07:19:23;;;;;;;10.55;9.13;;;13.50;99.90;;;;;;5034384;28;20022;-74
2021/10/11 07:21:53;;;;;;;9.93;9.02;;;13.40;99.90;;;;;;5034253;28;20041;-73
2021/10/11 07:24:20;;;;;;;10.70;8.77;;;13.40;99.90;;;;;;5034281;28;20026;-73
2021/10/11 07:26:48;;;;;;;9.15;8.32;;;13.30;99.90;;;;;;5034151;28;20018;-73
2021/10/11 07:29:15;;;;;;;11.40;8.30;;;13.30;99.90;;;;;;5034175;28;20439;-73
2021/10/11 07:31:43;;;;;;;10.20;7.50;;;13.40;99.90;;;;;;5016312;28;20030;-73
2021/10/11 07:34:10;;;;;;;8.38;7.40;;;13.30;99.90;;;;;;5016188;28;20021;-73
2021/10/11 07:36:37;;;;;;;11.55;7.40;;;13.40;99.90;;;;;;5034078;28;20021;-73
2021/10/11 07:39:04;;;;;;;9.80;7.35;;;13.40;99.90;;;;;;5034011;28;20227;-73
2021/10/11 07:41:32;;;;;;;10.55;7.63;;;13.40;99.90;;;;;;5032647;28;20033;-73
2021/10/11 07:43:59;;;;;;;11.05;8.45;;;13.40;99.90;;;;;;5033862;28;20486;-74
2021/10/11 07:46:26;;;;;;;12.50;8.27;;;13.30;99.90;;;;;;5033821;28;20363;-74
2021/10/11 07:48:54;;;;;;;9.07;8.20;;;13.40;99.90;;;;;;5033715;28;20087;-74
2021/10/11 07:51:21;;;;;;;8.90;8.25;;;13.40;99.90;;;;;;5033716;28;20104;-74
2021/10/11 07:53:48;;;;;;;9.50;8.52;;;13.30;99.90;;;;;;5033704;28;20022;-73
2021/10/11 07:56:16;;;;;;;10.75;8.32;;;13.40;99.90;;;;;;5033564;28;20025;-74
2021/10/11 07:58:43;;;;;;;9.35;7.88;;;13.30;99.90;;;;;;5033575;28;20104;-73
2021/10/11 08:01:10;;;;;;;9.82;8.63;;;13.20;99.90;;;;;;5033557;28;20041;-73
2021/10/11 08:03:38;;;;;;;8.35;7.50;;;13.30;99.90;;;;;;5015713;28;20458;-73
2021/10/11 08:06:07;;;;;;;8.20;7.35;;;13.30;99.90;;;;;;5033241;28;20124;-74
2021/10/11 08:08:35;;;;;;;11.68;7.90;;;13.30;99.90;;;;;;5033524;28;20029;-72
2021/10/11 08:11:03;;;;;;;9.73;7.75;;;13.20;99.90;;;;;;5033316;28;20057;-73
2021/10/11 08:13:31;;;;;;;8.88;7.97;;;13.20;99.90;;;;;;5033209;28;20385;-73
2021/10/11 08:15:59;;;;;;;11.00;8.73;;;13.20;99.90;;;;;;5033185;28;20083;-73
2021/10/11 08:18:26;;;;;;;9.07;8.00;;;13.30;99.90;;;;;;5032835;28;20386;-74
2021/10/11 08:20:54;;;;;;;11.13;8.80;;;13.30;99.90;;;;;;5033034;28;20014;-73
2021/10/11 08:23:21;;;;;;;8.90;8.15;;;13.30;99.90;;;;;;5033173;28;20045;-73
2021/10/11 08:25:48;;;;;;;8.88;7.97;;;13.30;99.90;;;;;;5032868;28;20025;-73
2021/10/11 08:28:16;;;;;;;9.05;8.30;;;13.30;99.90;;;;;;5031624;28;20029;-74
2021/10/11 08:30:44;;;;;;;9.18;8.32;;;13.30;99.90;;;;;;5032807;28;20025;-74
2021/10/11 08:33:11;;;;;;;16.15;9.73;;;13.30;99.90;;;;;;5032864;28;20018;-73
2021/10/11 08:35:38;;;;;;;9.65;8.85;;;13.30;99.90;;;;;;5032809;28;20492;-75
2021/10/11 08:38:06;;;;;;;9.85;8.82;;;13.20;99.90;;;;;;5015091;28;20025;-73
2021/10/11 08:40:33;;;;;;;9.07;8.40;;;13.20;99.90;;;;;;5033013;28;20147;-73
2021/10/11 08:43:00;;;;;;;9.63;7.85;;;13.20;99.90;;;;;;5032737;28;20045;-73
2021/10/11 08:45:28;;;;;;;9.23;8.45;;;13.20;99.90;;;;;;5032785;28;20025;-73
2021/10/11 08:47:55;;;;;;;9.80;8.82;;;13.30;99.90;;;;;;5032770;28;20032;-74
2021/10/11 08:50:23;;;;;;;9.50;8.57;;;13.30;99.90;;;;;;5032792;28;20022;-73
2021/10/11 08:52:51;;;;;;;9.27;8.35;;;13.20;99.90;;;;;;5032714;28;20018;-74
2021/10/11 08:55:18;;;;;;;9.60;8.80;;;13.20;99.90;;;;;;5014831;28;20490;-75
2021/10/11 08:57:45;;;;;;;8.70;7.88;;;13.20;99.90;;;;;;5032653;28;20021;-74
2021/10/11 09:00:16;;;;;;;10.20;7.93;;;13.20;99.90;;;;;;5014935;28;20061;-74
2021/10/11 09:02:55;;;;;;;8.93;7.35;;;13.30;99.90;;;;;;5031329;28;20018;-72
2021/10/11 09:05:26;;;;;;;7.90;7.13;;;13.40;99.90;;;;;;5032369;28;20053;-75
2021/10/11 09:08:00;;;;;;;11.43;7.50;;;13.30;99.90;;;;;;5032712;28;20021;-73
2021/10/11 09:10:29;;;;;;;7.18;6.78;;;13.30;99.90;;;;;;5014959;28;20036;-73
2021/10/11 09:12:57;;;;;;;8.85;7.80;;;13.30;99.90;;;;;;5032611;28;20025;-73
2021/10/11 09:15:28;;;;;;;8.68;8.00;;;13.30;99.90;;;;;;5032352;28;20454;-73
2021/10/11 09:18:01;;;;;;;8.52;7.93;;;13.30;99.90;;;;;;5014701;28;20108;-74
2021/10/11 09:20:29;;;;;;;8.77;7.97;;;13.30;99.90;;;;;;5031199;28;20035;-73
2021/10/11 09:22:59;;;;;;;8.57;7.80;;;13.30;99.90;;;;;;5032564;28;20514;-73
2021/10/11 09:25:38;;;;;;;8.57;7.65;;;13.30;99.90;;;;;;5032618;28;20025;-73
2021/10/11 09:28:07;;;;;;;10.50;8.23;;;13.40;99.90;;;;;;5032400;28;20080;-75
2021/10/11 09:30:37;;;;;;;9.25;8.38;;;13.40;99.90;;;;;;5033668;28;20025;-73
2021/10/11 09:33:16;;;;;;;8.77;8.07;;;13.40;99.90;;;;;;5036562;28;20053;-74
2021/10/11 09:35:44;;;;;;;8.45;7.60;;;13.30;99.90;;;;;;5036229;28;20029;-74
2021/10/11 09:38:25;;;;;;;8.77;7.50;;;13.30;99.90;;;;;;5036216;28;20053;-74
2021/10/11 09:40:55;;;;;;;8.32;7.70;;;13.30;99.90;;;;;;5036230;28;20021;-75
2021/10/11 09:43:25;;;;;;;8.35;7.55;;;13.30;99.90;;;;;;5034652;28;20057;-76
2021/10/11 09:45:52;;;;;;;8.20;7.40;;;;;;;;;;5034843;28;20026;-73
2021/10/11 09:48:20;;;;;;;8.70;7.90;;;;;;;;;;5036083;28;20026;-73
2021/10/11 09:50:47;;;;;;;8.63;7.90;;;;;;;;;;5018133;28;20108;-74
2021/10/11 09:53:16;;;;;;;8.73;8.02;;;13.50;99.90;;;;;;5036240;28;20100;-74
2021/10/11 09:55:44;;;;;;;7.85;7.32;;;13.50;99.90;;;;;;5035712;28;20074;-73
2021/10/11 09:58:13;;;;;;;8.45;7.65;;;13.50;99.90;;;;;;5035972;28;20532;-72
2021/10/11 10:00:42;;;;;;;8.27;7.50;;;13.60;99.90;;;;;;5035858;28;20022;-73
2021/10/11 10:03:12;;;;;;;7.90;7.35;;;13.60;99.90;;;;;;5035840;28;20104;-74
2021/10/11 10:05:49;;;;;;;8.30;7.60;;;13.50;99.90;;;;;;5017703;28;20049;-74
2021/10/11 10:08:27;;;;;;;8.63;7.82;;;13.50;99.90;;;;;;5035730;28;20038;-74
2021/10/11 10:10:56;;;;;;;7.90;7.40;;;13.50;99.90;;;;;;5034352;28;20030;-74
2021/10/11 10:13:25;;;;;;;8.68;8.07;;;13.50;99.90;;;;;;5035810;28;20072;-75
2021/10/11 10:16:07;;;;;;;8.88;8.00;;;13.40;99.90;;;;;;5035574;28;20025;-74
2021/10/11 10:18:45;;;;;;;8.13;7.50;;;13.40;99.90;;;;;;5035792;28;20020;-74
2021/10/11 10:21:14;;;;;;;8.68;7.90;;;13.40;99.90;;;;;;5035572;28;20030;-74
2021/10/11 10:23:53;;;;;;;8.93;8.00;;;13.40;99.90;;;;;;5035535;28;20482;-75
2021/10/11 10:26:33;;;;;;;8.43;7.85;;;13.30;99.90;;;;;;5017651;28;20029;-74
2021/10/11 10:29:19;;;;;;;9.32;8.25;;;13.30;99.90;;;;;;5035605;28;20018;-74
2021/10/11 10:31:47;;;;;;;9.82;8.68;;;13.30;99.90;;;;;;5035374;28;20028;-74
2021/10/11 10:34:18;;;;;;;9.13;8.32;;;13.30;99.90;;;;;;5035237;28;20026;-74
2021/10/11 10:36:58;;;;;;;10.32;8.70;;;13.30;99.90;;;;;;5035165;28;20071;-74
2021/10/11 10:39:37;;;;;;;8.88;8.00;;;13.40;99.90;;;;;;5035225;28;20021;-74
2021/10/11 10:42:05;;;;;;;11.38;8.90;;;13.50;99.90;;;;;;5034852;28;20017;-75
2021/10/11 10:44:32;;;;;;;9.60;8.70;;;13.50;99.90;;;;;;5035039;28;20046;-76
2021/10/11 10:47:02;;;;;;;9.13;8.20;;;13.50;99.90;;;;;;5035068;28;20025;-74
2021/10/11 10:49:33;;;;;;;9.95;9.07;;;13.50;99.90;;;;;;5033836;28;20048;-75
2021/10/11 10:52:14;;;;;;;9.70;8.75;;;13.50;99.90;;;;;;5033707;28;20049;-75
2021/10/11 10:54:49;;;;;;;9.40;8.50;;;13.50;99.90;;;;;;5034647;28;20108;-74
2021/10/11 10:57:24;;;;;;;9.55;8.60;;;13.60;99.90;;;;;;5034807;28;20423;-74
2021/10/11 11:00:02;;;;;;;11.98;8.57;;;13.60;99.90;;;;;;5016973;28;20496;-74
2021/10/11 11:02:33;;;;;;;12.85;9.30;;;13.70;99.90;;;;;;5034822;28;20018;-74
2021/10/11 11:05:02;;;;;;;9.00;8.20;;;13.80;99.90;;;;;;5034137;28;20498;-74
2021/10/11 11:07:35;;;;;;;8.80;8.00;;;13.80;99.90;;;;;;5033664;28;20564;-74
2021/10/11 11:10:11;;;;;;;9.18;8.40;;;13.80;99.90;;;;;;5033510;28;20022;-74
2021/10/11 11:12:41;;;;;;;8.45;7.70;;;13.80;99.90;;;;;;5033481;28;20033;-75
2021/10/11 11:15:11;;;;;;;9.80;8.75;;;13.90;99.90;;;;;;5033439;28;20112;-74
2021/10/11 11:17:40;;;;;;;9.18;8.38;;;13.90;99.90;;;;;;5033663;28;20022;-74
2021/10/11 11:20:18;;;;;;;9.50;8.55;;;13.80;99.90;;;;;;5033401;28;20030;-74
2021/10/11 11:22:48;;;;;;;13.75;9.35;;;13.90;99.90;;;;;;5033553;28;20013;-74
2021/10/11 11:25:16;;;;;;;10.00;8.80;;;14.00;99.90;;;;;;5015505;28;20048;-75
2021/10/11 11:27:46;;;;;;;9.15;8.27;;;14.00;99.90;;;;;;5015523;28;20345;-74
2021/10/11 11:30:17;;;;;;;8.88;7.97;;;14.00;99.90;;;;;;5031886;28;20033;-75
2021/10/11 11:32:51;;;;;;;;;;;14.00;99.90;;;;;;5016025;28;20038;-75
2021/10/11 11:35:21;;;;;;;8.45;7.85;;;14.00;99.90;;;;;;5033192;28;20258;-74
2021/10/11 11:37:50;;;;;;;9.68;8.60;;;14.00;99.90;;;;;;5033228;28;20053;-74
2021/10/11 11:40:21;;;;;;;9.77;8.15;;;14.00;99.90;;;;;;5033174;28;20108;-74
2021/10/11 11:42:49;;;;;;;9.30;7.93;;;14.00;99.90;;;;;;5031799;28;20030;-73
2021/10/11 11:45:18;;;;;;;9.10;8.25;;;14.10;99.90;;;;;;5033027;28;20025;-74
2021/10/11 11:47:46;;;;;;;9.25;8.40;;;14.00;99.90;;;;;;5033066;28;20030;-74
2021/10/11 11:50:18;;;;;;;9.18;8.20;;;14.00;99.90;;;;;;5015301;28;20367;-74
2021/10/11 11:52:49;;;;;;;11.63;9.27;;;14.00;99.90;;;;;;5032235;28;20422;-74
2021/10/11 11:55:17;;;;;;;10.05;8.52;;;14.00;99.90;;;;;;5032885;28;20035;-74
2021/10/11 11:57:45;;;;;;;9.35;8.70;;;14.00;99.90;;;;;;5031457;28;20045;-74
2021/10/11 12:00:14;;;;;;;13.10;9.63;;;14.10;99.90;;;;;;5032712;28;20477;-74
2021/10/11 12:02:45;;;;;;;10.75;8.73;;;14.10;99.90;;;;;;5031485;28;20021;-74
2021/10/11 12:05:13;;;;;;;10.57;8.60;;;14.10;99.90;;;;;;4902445;28;3758071;-73
2021/10/11 12:07:41;;;;;;;10.60;8.40;;;14.10;99.90;;;;;;5032187;28;20444;-74
2021/10/11 12:10:12;;;;;;;9.90;8.98;;;14.10;99.90;;;;;;5033510;28;20022;-74
2021/10/11 12:12:39;;;;;;;9.98;8.98;;;14.10;99.90;;;;;;5032157;28;20073;-74
2021/10/11 12:15:18;;;;;;;10.40;9.23;;;14.10;99.90;;;;;;5032233;28;20128;-75
2021/10/11 12:17:46;;;;;;;9.90;9.00;;;14.10;99.90;;;;;;5033413;28;20586;-74
2021/10/11 12:20:15;;;;;;;9.68;8.57;;;14.20;99.90;;;;;;5033312;28;20090;-74
2021/10/11 12:22:42;;;;;;;10.20;8.32;;;14.20;99.90;;;;;;5033352;28;20027;-74
2021/10/11 12:25:11;;;;;;;9.27;8.20;;;14.20;99.90;;;;;;5031885;28;20025;-74
2021/10/11 12:27:39;;;;;;;12.38;8.52;;;14.30;99.90;;;;;;5033274;28;20030;-73
2021/10/11 12:30:11;;;;;;;9.07;7.78;;;14.20;99.90;;;;;;5033273;28;20453;-74
2021/10/11 12:32:38;;;;;;;9.02;8.23;;;14.20;99.90;;;;;;5033261;28;20047;-74
2021/10/11 12:35:08;;;;;;;9.35;8.30;;;14.20;99.90;;;;;;5032997;28;20037;-74
2021/10/11 12:37:43;;;;;;;11.93;8.60;;;14.20;99.90;;;;;;5015403;28;20116;-75
2021/10/11 12:40:11;;;;;;;11.77;8.82;;;14.10;99.90;;;;;;5033172;28;20021;-75
2021/10/11 12:42:46;;;;;;;10.02;8.23;;;14.00;99.90;;;;;;5033223;28;20017;-75
2021/10/11 12:45:15;;;;;;;8.95;8.18;;;14.00;99.90;;;;;;5015287;28;20028;-74
2021/10/11 12:47:43;;;;;;;10.65;8.82;;;13.90;99.90;;;;;;5033037;28;20105;-73